Time;durP1;ratioP1;P1;durP2;ratioP2;P2;SDS_P1;SDS_P2;PMS_P1;PMS_P2;Temp;Humidity;BMP_temperature;BMP_pressure;BME280_temperature;BME280_humidity;BME280_pressure;Samples;Min_cycle;Max_cycle;Signal;HPM_P1;HPM_P2
2021/08/11 00:01:33;;;;;;;;;;;21.00;68.80;;;;;;5033950;28;1949;-69
2021/08/11 00:03:58;;;;;;;;;;;21.00;68.80;;;;;;5033460;28;1421;-69
2021/08/11 00:06:24;;;;;;;;;;;21.00;68.70;;;;;;5033049;28;1192;-69
2021/08/11 00:08:49;;;;;;;;;;;21.00;68.70;;;;;;5033228;28;1671;-69
2021/08/11 00:11:15;;;;;;;;;;;21.00;68.60;;;;;;5033870;28;1357;-69
2021/08/11 00:13:40;;;;;;;;;;;21.00;68.70;;;;;;5033548;28;1370;-69
2021/08/11 00:16:06;;;;;;;;;;;21.00;68.70;;;;;;5032912;28;1653;-69
2021/08/11 00:18:31;;;;;;;;;;;21.00;68.70;;;;;;5033296;28;1680;-69
2021/08/11 00:20:56;;;;;;;;;;;21.00;68.60;;;;;;5032587;28;1313;-69
2021/08/11 00:23:25;;;;;;;;;;;21.00;68.60;;;;;;5033052;28;1906;-69
2021/08/11 00:25:53;;;;;;;;;;;21.00;68.60;;;;;;5032519;28;1386;-69
2021/08/11 00:28:19;;;;;;;;;;;21.00;68.60;;;;;;5033064;28;1457;-70
2021/08/11 00:30:44;;;;;;;;;;;21.00;68.60;;;;;;5033560;28;1174;-69
2021/08/11 00:33:10;;;;;;;;;;;21.00;68.50;;;;;;5033393;28;1708;-68
2021/08/11 00:35:35;;;;;;;;;;;21.00;68.50;;;;;;5033286;28;1600;-70
2021/08/11 00:38:00;;;;;;;;;;;21.00;68.50;;;;;;5033283;28;1622;-70
2021/08/11 00:40:26;;;;;;;;;;;21.00;68.50;;;;;;5033475;28;1662;-70
2021/08/11 00:42:51;;;;;;;;;;;21.00;68.50;;;;;;5032201;28;2038;-70
2021/08/11 00:45:17;;;;;;;;;;;21.00;68.50;;;;;;5030804;28;1656;-69
2021/08/11 00:47:42;;;;;;;;;;;21.00;68.30;;;;;;5032699;28;1600;-70
2021/08/11 00:50:08;;;;;;;;;;;21.00;68.40;;;;;;5031422;28;1690;-70
2021/08/11 00:52:34;;;;;;;;;;;20.90;68.30;;;;;;5031431;28;1588;-69
2021/08/11 00:54:59;;;;;;;;;;;21.00;68.40;;;;;;5031702;28;1617;-68
2021/08/11 00:57:25;;;;;;;;;;;21.00;68.40;;;;;;5032008;28;1661;-68
2021/08/11 00:59:50;;;;;;;;;;;21.00;68.40;;;;;;5031943;28;1249;-69
2021/08/11 01:02:16;;;;;;;;;;;21.00;68.40;;;;;;5031886;28;1902;-68
2021/08/11 01:04:41;;;;;;;;;;;21.00;68.50;;;;;;5030716;28;1387;-68
2021/08/11 01:07:06;;;;;;;;;;;21.00;68.50;;;;;;5031013;28;1617;-69
2021/08/11 01:09:32;;;;;;;;;;;21.00;68.60;;;;;;5031500;28;1656;-68
2021/08/11 01:11:57;;;;;;;;;;;21.00;68.60;;;;;;5032933;28;1652;-68
2021/08/11 01:14:23;;;;;;;;;;;21.00;68.60;;;;;;5031653;28;1584;-70
2021/08/11 01:16:48;;;;;;;;;;;21.00;68.60;;;;;;5031570;28;1590;-71
2021/08/11 01:19:15;;;;;;;;;;;21.00;68.70;;;;;;5033310;28;1076;-71
2021/08/11 01:21:59;;;;;;;;;;;21.00;68.70;;;;;;5032628;28;1963;-72
2021/08/11 01:24:41;;;;;;;;;;;21.00;68.70;;;;;;5032485;28;1183;-71
2021/08/11 01:27:17;;;;;;;;;;;21.00;68.70;;;;;;5031492;28;1361;-70
2021/08/11 01:29:59;;;;;;;;;;;20.90;68.60;;;;;;5032739;28;1115;-70
2021/08/11 01:32:39;;;;;;;;;;;21.00;68.70;;;;;;5031288;28;1088;-70
2021/08/11 01:35:05;;;;;;;;;;;20.90;68.70;;;;;;5031042;28;1254;-70
2021/08/11 01:37:31;;;;;;;;;;;20.90;68.70;;;;;;5031457;28;1331;-70
2021/08/11 01:39:57;;;;;;;;;;;21.00;68.70;;;;;;5032207;28;1084;-70
2021/08/11 01:42:26;;;;;;;;;;;20.90;68.60;;;;;;5036753;28;1871;-70
2021/08/11 01:45:06;;;;;;;;;;;20.90;68.60;;;;;;5034687;28;1246;-69
2021/08/11 01:47:32;;;;;;;;;;;20.90;68.50;;;;;;5036617;28;1303;-69
2021/08/11 01:49:58;;;;;;;;;;;20.90;69.20;;;;;;5035361;28;1290;-69
2021/08/11 01:52:23;;;;;;;;;;;20.90;68.30;;;;;;5035323;28;1096;-70
2021/08/11 01:54:49;;;;;;;;;;;20.90;68.30;;;;;;5034825;28;1215;-70
2021/08/11 01:57:14;;;;;;;;;;;20.90;68.20;;;;;;5035009;28;1267;-69
2021/08/11 01:59:40;;;;;;;;;;;20.90;68.10;;;;;;5036349;28;1226;-69
2021/08/11 02:02:05;;;;;;;;;;;20.90;68.00;;;;;;5035022;28;1902;-70
2021/08/11 02:04:31;;;;;;;;;;;20.90;68.10;;;;;;5035949;28;1191;-69
2021/08/11 02:06:56;;;;;;;;;;;20.90;67.90;;;;;;5035073;28;1271;-69
2021/08/11 02:09:22;;;;;;;;;;;20.90;67.80;;;;;;5036228;28;1120;-70
2021/08/11 02:11:47;;;;;;;;;;;20.90;67.70;;;;;;5035923;28;1008;-70
2021/08/11 02:14:13;;;;;;;;;;;20.90;68.30;;;;;;5035779;28;1093;-70
2021/08/11 02:16:39;;;;;;;;;;;20.90;67.60;;;;;;5035838;28;1165;-70
2021/08/11 02:19:04;;;;;;;;;;;20.90;67.60;;;;;;5034571;28;1041;-70
2021/08/11 02:21:29;;;;;;;;;;;20.90;67.40;;;;;;5035836;28;1909;-68
2021/08/11 02:23:55;;;;;;;;;;;20.90;67.40;;;;;;5029899;28;1224;-69
2021/08/11 02:26:23;;;;;;;;;;;20.90;67.50;;;;;;5029513;28;1171;-70
2021/08/11 02:29:00;;;;;;;;;;;20.90;67.40;;;;;;5035743;28;1269;-71
2021/08/11 02:31:34;;;;;;;;;;;20.90;67.40;;;;;;5034414;28;1100;-69
2021/08/11 02:34:03;;;;;;;;;;;20.90;67.30;;;;;;5025826;28;1175;-70
2021/08/11 02:36:30;;;;;;;;;;;20.90;67.40;;;;;;5030252;28;1093;-70
2021/08/11 02:39:00;;;;;;;;;;;20.90;67.20;;;;;;5035579;28;1221;-69
2021/08/11 02:41:34;;;;;;;;;;;20.90;67.10;;;;;;5035408;28;1902;-69
2021/08/11 02:44:02;;;;;;;;;;;20.90;67.10;;;;;;5034126;28;1105;-69
2021/08/11 02:46:27;;;;;;;;;;;20.90;67.10;;;;;;5033727;28;1124;-70
2021/08/11 02:49:01;;;;;;;;;;;20.90;67.00;;;;;;5033898;28;1229;-69
2021/08/11 02:51:27;;;;;;;;;;;20.90;67.00;;;;;;5035467;28;1678;-68
2021/08/11 02:53:53;;;;;;;;;;;20.90;67.00;;;;;;5034512;28;1688;-69
2021/08/11 02:56:19;;;;;;;;;;;20.90;66.90;;;;;;5017357;28;1207;-70
2021/08/11 02:58:44;;;;;;;;;;;20.90;67.00;;;;;;5034235;28;1202;-70
2021/08/11 03:01:10;;;;;;;;;;;20.90;66.80;;;;;;5033840;28;1136;-69
2021/08/11 03:03:35;;;;;;;;;;;20.90;66.90;;;;;;5035072;28;1898;-69
2021/08/11 03:06:00;;;;;;;;;;;20.90;67.00;;;;;;5034667;28;1068;-70
2021/08/11 03:08:27;;;;;;;;;;;20.80;67.00;;;;;;5035183;28;1251;-70
2021/08/11 03:10:52;;;;;;;;;;;20.90;67.10;;;;;;5033749;28;1211;-70
2021/08/11 03:13:18;;;;;;;;;;;20.90;67.10;;;;;;5035050;28;1096;-70
2021/08/11 03:15:43;;;;;;;;;;;20.90;67.10;;;;;;5034566;28;1116;-68
2021/08/11 03:18:09;;;;;;;;;;;20.90;67.00;;;;;;5033592;28;1258;-70
2021/08/11 03:20:35;;;;;;;;;;;20.90;67.10;;;;;;5034585;28;1119;-70
2021/08/11 03:23:01;;;;;;;;;;;20.80;67.00;;;;;;5033676;28;1973;-69
2021/08/11 03:25:26;;;;;;;;;;;20.80;66.90;;;;;;5034457;28;1170;-69
2021/08/11 03:27:52;;;;;;;;;;;20.80;66.90;;;;;;5034738;28;1271;-69
2021/08/11 03:30:17;;;;;;;;;;;20.80;67.00;;;;;;5034689;28;1183;-70
2021/08/11 03:32:42;;;;;;;;;;;20.80;66.90;;;;;;5034708;28;1092;-69
2021/08/11 03:35:08;;;;;;;;;;;20.80;66.70;;;;;;5034168;28;1271;-69
2021/08/11 03:37:33;;;;;;;;;;;20.80;66.70;;;;;;5034828;28;1356;-69
2021/08/11 03:39:59;;;;;;;;;;;20.80;66.50;;;;;;5034637;28;1182;-70
2021/08/11 03:42:24;;;;;;;;;;;20.80;66.40;;;;;;5049787;28;1973;-70
2021/08/11 03:44:50;;;;;;;;;;;20.80;66.40;;;;;;5032865;28;1241;-69
2021/08/11 03:47:15;;;;;;;;;;;20.80;66.30;;;;;;5034264;28;1287;-69
2021/08/11 03:49:41;;;;;;;;;;;20.80;66.20;;;;;;5034085;28;1152;-69
2021/08/11 03:52:06;;;;;;;;;;;20.80;66.30;;;;;;5034104;28;1036;-70
2021/08/11 03:54:32;;;;;;;;;;;20.80;66.10;;;;;;5034057;28;1230;-69
2021/08/11 03:56:57;;;;;;;;;;;20.80;66.10;;;;;;5034091;28;1257;-69
2021/08/11 03:59:22;;;;;;;;;;;20.80;66.00;;;;;;5034112;28;1183;-70
2021/08/11 04:01:50;;;;;;;;;;;20.80;66.00;;;;;;5034137;28;1906;-70
2021/08/11 04:04:18;;;;;;;;;;;20.80;66.00;;;;;;5033118;28;1040;-70
2021/08/11 04:06:43;;;;;;;;;;;20.80;65.90;;;;;;5033836;28;1216;-69
2021/08/11 04:09:09;;;;;;;;;;;20.80;65.90;;;;;;5049279;28;1104;-69
2021/08/11 04:11:34;;;;;;;;;;;20.80;65.90;;;;;;5034046;28;1049;-69
2021/08/11 04:14:00;;;;;;;;;;;20.80;66.10;;;;;;5033483;28;1119;-70
2021/08/11 04:16:25;;;;;;;;;;;20.80;66.10;;;;;;5016132;28;1085;-70
2021/08/11 04:18:51;;;;;;;;;;;20.80;66.20;;;;;;5033377;28;1122;-69
2021/08/11 04:21:16;;;;;;;;;;;20.80;66.30;;;;;;5033767;28;1914;-70
2021/08/11 04:23:41;;;;;;;;;;;20.80;66.30;;;;;;5033651;28;1222;-69
2021/08/11 04:26:07;;;;;;;;;;;20.80;66.20;;;;;;5033417;28;1092;-70
2021/08/11 04:28:32;;;;;;;;;;;20.80;66.30;;;;;;5033428;28;1291;-69
2021/08/11 04:30:58;;;;;;;;;;;20.80;66.40;;;;;;5032313;28;1096;-69
2021/08/11 04:33:23;;;;;;;;;;;20.80;66.30;;;;;;5033370;28;1096;-70
2021/08/11 04:35:49;;;;;;;;;;;20.80;66.30;;;;;;5031856;28;1081;-69
2021/08/11 04:38:16;;;;;;;;;;;20.80;66.40;;;;;;5033343;28;1267;-69
2021/08/11 04:40:42;;;;;;;;;;;20.80;66.50;;;;;;5033552;28;1052;-70
2021/08/11 04:43:07;;;;;;;;;;;20.80;66.40;;;;;;5033222;28;1979;-70
2021/08/11 04:45:40;;;;;;;;;;;20.80;66.50;;;;;;5032960;28;1136;-69
2021/08/11 04:48:05;;;;;;;;;;;20.80;66.70;;;;;;5031780;28;1347;-69
2021/08/11 04:50:31;;;;;;;;;;;20.80;66.70;;;;;;5032947;28;1819;-68
2021/08/11 04:52:56;;;;;;;;;;;20.80;66.70;;;;;;5030959;28;1907;-68
2021/08/11 04:55:22;;;;;;;;;;;20.80;66.70;;;;;;5032001;28;957;-70
2021/08/11 04:57:47;;;;;;;;;;;20.80;66.70;;;;;;5032410;28;1276;-69
2021/08/11 05:00:13;;;;;;;;;;;20.80;66.80;;;;;;5033098;28;1179;-69
2021/08/11 05:02:38;;;;;;;;;;;20.80;66.80;;;;;;5032737;28;1902;-69
2021/08/11 05:05:05;;;;;;;;;;;20.80;67.30;;;;;;5032631;28;1181;-69
2021/08/11 05:07:30;;;;;;;;;;;20.80;67.30;;;;;;5031639;28;1285;-69
2021/08/11 05:09:56;;;;;;;;;;;20.80;69.70;;;;;;5033068;28;1064;-68
2021/08/11 05:12:21;;;;;;;;;;;20.80;69.10;;;;;;5032786;28;1076;-69
2021/08/11 05:14:47;;;;;;;;;;;20.80;69.50;;;;;;5028062;28;1459;-66
2021/08/11 05:17:12;;;;;;;;;;;20.80;69.70;;;;;;5032184;28;1316;-67
2021/08/11 05:19:37;;;;;;;;;;;20.80;69.50;;;;;;5022693;28;1083;-66
2021/08/11 05:22:03;;;;;;;;;;;20.80;70.10;;;;;;5044996;28;1918;-66
2021/08/11 05:24:28;;;;;;;;;;;20.80;69.70;;;;;;5032800;28;931;-66
2021/08/11 05:26:54;;;;;;;;;;;20.90;70.00;;;;;;5032597;28;1260;-65
2021/08/11 05:29:19;;;;;;;;;;;20.80;69.70;;;;;;5032802;28;1135;-65
2021/08/11 05:31:45;;;;;;;;;;;20.80;70.10;;;;;;5032362;28;1068;-66
2021/08/11 05:34:10;;;;;;;;;;;20.90;69.70;;;;;;5031417;28;1214;-67
2021/08/11 05:36:36;;;;;;;;;;;20.80;69.70;;;;;;5029665;28;1361;-66
2021/08/11 05:39:01;;;;;;;;;;;20.90;69.70;;;;;;5022601;28;1127;-66
2021/08/11 05:41:26;;;;;;;;;;;20.80;69.60;;;;;;5032543;28;1906;-67
2021/08/11 05:43:52;;;;;;;;;;;20.90;69.80;;;;;;5023375;28;1064;-67
2021/08/11 05:46:17;;;;;;;;;;;20.90;70.20;;;;;;5043529;28;1359;-67
2021/08/11 05:48:43;;;;;;;;;;;20.90;69.50;;;;;;5032364;28;1218;-67
2021/08/11 05:51:08;;;;;;;;;;;20.90;70.30;;;;;;5019364;28;1134;-67
2021/08/11 05:53:34;;;;;;;;;;;20.90;70.00;;;;;;5013215;28;838;-67
2021/08/11 05:55:59;;;;;;;;;;;20.90;69.90;;;;;;5014460;28;1080;-67
2021/08/11 05:58:25;;;;;;;;;;;20.90;69.70;;;;;;5032395;28;1274;-68
2021/08/11 06:00:50;;;;;;;;;;;20.90;69.30;;;;;;5019295;28;1166;-67
2021/08/11 06:03:16;;;;;;;;;;;20.90;70.00;;;;;;5032425;28;1898;-66
2021/08/11 06:05:41;;;;;;;;;;;20.90;70.00;;;;;;5030560;28;1076;-67
2021/08/11 06:08:06;;;;;;;;;;;20.90;70.20;;;;;;5021058;28;1208;-69
2021/08/11 06:10:32;;;;;;;;;;;20.90;70.00;;;;;;5032285;28;1151;-68
2021/08/11 06:12:57;;;;;;;;;;;20.90;70.20;;;;;;5032407;28;1072;-69
2021/08/11 06:15:23;;;;;;;;;;;20.90;70.50;;;;;;5031962;28;1009;-69
2021/08/11 06:17:49;;;;;;;;;;;20.80;70.40;;;;;;5031726;28;1206;-69
2021/08/11 06:20:15;;;;;;;;;;;20.90;70.40;;;;;;5032229;28;1073;-69
2021/08/11 06:22:41;;;;;;;;;;;20.90;70.30;;;;;;5032452;28;1910;-69
2021/08/11 06:25:06;;;;;;;;;;;20.90;70.30;;;;;;5031988;28;1115;-70
2021/08/11 06:27:32;;;;;;;;;;;20.90;70.30;;;;;;5035231;28;1260;-70
2021/08/11 06:29:57;;;;;;;;;;;20.90;70.40;;;;;;5036322;28;1091;-69
2021/08/11 06:32:23;;;;;;;;;;;20.90;70.10;;;;;;5034411;28;1125;-69
2021/08/11 06:34:48;;;;;;;;;;;20.90;69.70;;;;;;5035459;28;1210;-69
2021/08/11 06:37:13;;;;;;;;;;;20.90;70.50;;;;;;5035892;28;1211;-69
2021/08/11 06:39:39;;;;;;;;;;;20.90;69.80;;;;;;5035673;28;1096;-69
2021/08/11 06:42:04;;;;;;;;;;;20.90;70.40;;;;;;5035581;28;1906;-70
2021/08/11 06:44:30;;;;;;;;;;;20.90;70.00;;;;;;5035349;28;1040;-69
2021/08/11 06:46:55;;;;;;;;;;;20.90;70.60;;;;;;5034128;28;1264;-70
2021/08/11 06:49:20;;;;;;;;;;;20.90;70.20;;;;;;5035533;28;1135;-70
2021/08/11 06:51:46;;;;;;;;;;;20.90;70.00;;;;;;5035363;28;1080;-68
2021/08/11 06:54:12;;;;;;;;;;;20.90;70.20;;;;;;5035139;28;1063;-69
2021/08/11 06:56:38;;;;;;;;;;;20.90;70.10;;;;;;5035356;28;1267;-69
2021/08/11 06:59:03;;;;;;;;;;;20.90;70.50;;;;;;5035266;28;1139;-68
2021/08/11 07:01:29;;;;;;;;;;;20.90;70.50;;;;;;5034920;28;1953;-69
2021/08/11 07:03:54;;;;;;;;;;;20.90;70.40;;;;;;5035526;28;1175;-68
2021/08/11 07:06:20;;;;;;;;;;;20.90;70.30;;;;;;5034812;28;1138;-69
2021/08/11 07:08:45;;;;;;;;;;;20.90;70.70;;;;;;5033984;28;1596;-69
2021/08/11 07:11:10;;;;;;;;;;;20.90;70.70;;;;;;5035032;28;1092;-68
2021/08/11 07:13:36;;;;;;;;;;;20.90;70.60;;;;;;5035020;28;1136;-69
2021/08/11 07:16:02;;;;;;;;;;;20.90;70.80;;;;;;5034457;28;1075;-69
2021/08/11 07:18:27;;;;;;;;;;;20.90;70.80;;;;;;5048225;23;2184;-68
2021/08/11 07:20:52;;;;;;;;;;;20.90;70.70;;;;;;5054590;28;977;-67
2021/08/11 07:23:18;;;;;;;;;;;20.90;70.60;;;;;;5054867;28;1914;-68
2021/08/11 07:25:43;;;;;;;;;;;20.90;71.00;;;;;;5054250;28;1154;-68
2021/08/11 07:28:09;;;;;;;;;;;20.90;70.80;;;;;;5054616;28;1290;-67
2021/08/11 07:30:34;;;;;;;;;;;20.90;71.10;;;;;;5036517;28;1096;-68
2021/08/11 07:33:00;;;;;;;;;;;20.90;71.00;;;;;;5036301;28;1063;-68
2021/08/11 07:35:25;;;;;;;;;;;20.90;71.20;;;;;;5041210;28;1049;-67
2021/08/11 07:37:52;;;;;;;;;;;20.90;70.80;;;;;;5035808;28;1311;-69
2021/08/11 07:40:18;;;;;;;;;;;20.90;70.90;;;;;;5036698;28;1283;-68
2021/08/11 07:42:43;;;;;;;;;;;20.90;71.00;;;;;;5039666;28;1953;-66
2021/08/11 07:45:09;;;;;;;;;;;20.90;71.10;;;;;;5019149;28;1118;-66
2021/08/11 07:47:35;;;;;;;;;;;20.90;71.30;;;;;;5005298;28;1192;-67
2021/08/11 07:50:00;;;;;;;;;;;20.90;71.30;;;;;;5020078;28;946;-66
2021/08/11 07:52:26;;;;;;;;;;;20.90;71.10;;;;;;5019083;28;1139;-66
2021/08/11 07:54:51;;;;;;;;;;;20.90;71.40;;;;;;5052463;28;1321;-66
2021/08/11 07:57:17;;;;;;;;;;;20.90;71.40;;;;;;5054118;28;1138;-67
2021/08/11 07:59:42;;;;;;;;;;;20.90;71.30;;;;;;5053713;28;1296;-66
2021/08/11 08:02:11;;;;;;;;;;;20.90;71.50;;;;;;5053801;28;1952;-66
2021/08/11 08:04:36;;;;;;;;;;;20.90;71.20;;;;;;5053611;28;1329;-66
2021/08/11 08:07:02;;;;;;;;;;;20.90;71.50;;;;;;5053874;28;1142;-67
2021/08/11 08:09:27;;;;;;;;;;;20.90;71.30;;;;;;5053498;28;1219;-66
2021/08/11 08:11:52;;;;;;;;;;;20.90;71.40;;;;;;5053568;28;1111;-66
2021/08/11 08:14:18;;;;;;;;;;;20.90;71.20;;;;;;5053166;28;1127;-66
2021/08/11 08:16:43;;;;;;;;;;;20.90;71.50;;;;;;5053603;28;1060;-67
2021/08/11 08:19:09;;;;;;;;;;;20.90;71.70;;;;;;5053657;28;1303;-67
2021/08/11 08:21:35;;;;;;;;;;;20.90;71.60;;;;;;5053502;28;1965;-66
2021/08/11 08:24:00;;;;;;;;;;;20.90;71.60;;;;;;5053434;28;1171;-67
2021/08/11 08:26:25;;;;;;;;;;;20.90;71.60;;;;;;5046909;28;1225;-66
2021/08/11 08:28:51;;;;;;;;;;;20.90;71.20;;;;;;5053146;28;1269;-65
2021/08/11 08:31:16;;;;;;;;;;;20.90;71.60;;;;;;5042386;28;2216;-67
2021/08/11 08:33:42;;;;;;;;;;;20.90;71.60;;;;;;5016874;28;1432;-66
2021/08/11 08:36:07;;;;;;;;;;;20.90;71.20;;;;;;5041414;28;1116;-66
2021/08/11 08:38:33;;;;;;;;;;;20.90;71.50;;;;;;5024780;28;1768;-67
2021/08/11 08:40:58;;;;;;;;;;;20.90;71.60;;;;;;5053304;28;1682;-66
2021/08/11 08:43:24;;;;;;;;;;;20.90;71.20;;;;;;5032791;28;1962;-66
2021/08/11 08:45:49;;;;;;;;;;;20.90;72.00;;;;;;5031496;28;1907;-66
2021/08/11 08:48:15;;;;;;;;;;;20.90;71.40;;;;;;5020897;28;1418;-67
2021/08/11 08:50:40;;;;;;;;;;;20.90;71.60;;;;;;5034508;28;1634;-66
2021/08/11 08:53:06;;;;;;;;;;;20.90;71.60;;;;;;5012260;28;1358;-67
2021/08/11 08:55:32;;;;;;;;;;;20.90;71.60;;;;;;5026190;28;1767;-67
2021/08/11 08:57:57;;;;;;;;;;;20.90;71.50;;;;;;5034581;28;1382;-66
2021/08/11 09:00:23;;;;;;;;;;;20.90;71.50;;;;;;5035313;28;1390;-66
2021/08/11 09:02:49;;;;;;;;;;;20.90;71.30;;;;;;5035264;28;1894;-67
2021/08/11 09:05:14;;;;;;;;;;;20.90;71.50;;;;;;5035014;28;1588;-67
2021/08/11 09:07:42;;;;;;;;;;;20.90;71.60;;;;;;5052936;28;1714;-66
2021/08/11 09:10:17;;;;;;;;;;;20.90;71.60;;;;;;5035424;28;1478;-67
2021/08/11 09:12:44;;;;;;;;;;;20.90;71.40;;;;;;5052787;28;1177;-66
2021/08/11 09:15:23;;;;;;;;;;;20.90;71.60;;;;;;5052779;28;1201;-67
2021/08/11 09:17:50;;;;;;;;;;;20.90;71.50;;;;;;5035039;28;1756;-66
2021/08/11 09:20:20;;;;;;;;;;;20.90;71.70;;;;;;5053139;28;1742;-67
2021/08/11 09:22:46;;;;;;;;;;;20.90;71.50;;;;;;5034854;28;1910;-67
2021/08/11 09:25:11;;;;;;;;;;;20.90;71.40;;;;;;5046054;28;1413;-66
2021/08/11 09:27:40;;;;;;;;;;;20.90;71.40;;;;;;5034952;28;1590;-67
2021/08/11 09:30:13;;;;;;;;;;;20.90;71.40;;;;;;5035064;28;1752;-67
2021/08/11 09:32:44;;;;;;;;;;;20.90;71.60;;;;;;5052804;28;1433;-67
2021/08/11 09:35:10;;;;;;;;;;;20.90;71.40;;;;;;5038990;28;1581;-66
2021/08/11 09:37:36;;;;;;;;;;;20.90;71.40;;;;;;5052439;28;1399;-67
2021/08/11 09:40:11;;;;;;;;;;;20.90;71.10;;;;;;5052908;28;1664;-67
2021/08/11 09:42:37;;;;;;;;;;;20.90;71.10;;;;;;5052718;28;1906;-67
2021/08/11 09:45:03;;;;;;;;;;;20.90;71.10;;;;;;5052298;28;1467;-67
2021/08/11 09:47:29;;;;;;;;;;;20.90;71.40;;;;;;5052656;28;1736;-66
2021/08/11 09:49:58;;;;;;;;;;;20.90;71.30;;;;;;5034784;28;1472;-67
2021/08/11 09:52:23;;;;;;;;;;;20.90;71.20;;;;;;5024482;28;1378;-66
2021/08/11 09:54:56;;;;;;;;;;;21.00;71.00;;;;;;5051679;28;1486;-67
2021/08/11 09:57:28;;;;;;;;;;;21.00;71.10;;;;;;5034557;28;1283;-66
2021/08/11 09:59:57;;;;;;;;;;;21.00;71.20;;;;;;5035055;28;1411;-67
2021/08/11 10:02:25;;;;;;;;;;;21.00;71.10;;;;;;5055544;28;1955;-65
2021/08/11 10:04:51;;;;;;;;;;;21.00;71.00;;;;;;5038569;28;1346;-66
2021/08/11 10:07:17;;;;;;;;;;;21.00;71.00;;;;;;5056258;28;1433;-66
2021/08/11 10:09:42;;;;;;;;;;;21.00;71.00;;;;;;5056243;28;1810;-67
2021/08/11 10:12:25;;;;;;;;;;;21.00;70.80;;;;;;5038382;28;1417;-66
2021/08/11 10:14:50;;;;;;;;;;;21.00;70.90;;;;;;5055921;28;1334;-67
2021/08/11 10:17:16;;;;;;;;;;;21.00;70.80;;;;;;5038196;28;1693;-66
2021/08/11 10:19:41;;;;;;;;;;;21.00;70.60;;;;;;5038173;28;1302;-66
2021/08/11 10:22:14;;;;;;;;;;;21.00;70.40;;;;;;5038012;28;2016;-67
2021/08/11 10:24:39;;;;;;;;;;;21.00;70.30;;;;;;5033201;28;1233;-65
2021/08/11 10:27:05;;;;;;;;;;;21.00;70.40;;;;;;5052674;28;1382;-67
2021/08/11 10:29:31;;;;;;;;;;;21.00;70.30;;;;;;5029705;28;1397;-66
2021/08/11 10:31:57;;;;;;;;;;;21.10;70.30;;;;;;5024750;28;1909;-66
2021/08/11 10:34:23;;;;;;;;;;;21.10;70.10;;;;;;5017209;28;1119;-66
2021/08/11 10:36:48;;;;;;;;;;;21.10;69.60;;;;;;5035531;28;1119;-66
2021/08/11 10:39:14;;;;;;;;;;;21.10;70.00;;;;;;5055707;28;1192;-67
2021/08/11 10:41:39;;;;;;;;;;;21.10;70.00;;;;;;5055334;28;1956;-67
2021/08/11 10:44:05;;;;;;;;;;;21.10;70.10;;;;;;5020912;28;2139;-66
2021/08/11 10:46:39;;;;;;;;;;;21.10;69.60;;;;;;5032931;28;1034;-66
2021/08/11 10:49:05;;;;;;;;;;;21.10;69.00;;;;;;5035723;28;1207;-65
2021/08/11 10:51:37;;;;;;;;;;;21.00;68.80;;;;;;5033525;28;1160;-66
2021/08/11 10:54:03;;;;;;;;;;;21.10;68.80;;;;;;5048485;28;1147;-66
2021/08/11 10:56:47;;;;;;;;;;;21.10;68.90;;;;;;5055157;28;1154;-66
2021/08/11 10:59:21;;;;;;;;;;;21.10;68.50;;;;;;5054978;28;1274;-66
2021/08/11 11:01:47;;;;;;;;;;;21.10;68.70;;;;;;5054958;28;1945;-66
2021/08/11 11:04:12;;;;;;;;;;;21.10;68.00;;;;;;5036920;28;1123;-66
2021/08/11 11:06:51;;;;;;;;;;;21.10;68.20;;;;;;5051802;28;1135;-66
2021/08/11 11:09:17;;;;;;;;;;;21.10;68.30;;;;;;5054618;28;1267;-66
2021/08/11 11:11:45;;;;;;;;;;;21.10;67.80;;;;;;5054444;28;1059;-66
2021/08/11 11:14:31;;;;;;;;;;;21.10;67.50;;;;;;5036242;28;1131;-66
2021/08/11 11:17:00;;;;;;;;;;;21.10;67.50;;;;;;5054594;28;1078;-67
2021/08/11 11:19:25;;;;;;;;;;;21.10;67.60;;;;;;5036804;28;1178;-67
2021/08/11 11:21:50;;;;;;;;;;;21.10;67.40;;;;;;5047411;28;1910;-66
2021/08/11 11:24:35;;;;;;;;;;;21.10;67.50;;;;;;5053154;28;1274;-66
2021/08/11 11:27:00;;;;;;;;;;;21.20;67.10;;;;;;5052077;28;1155;-66
2021/08/11 11:29:41;;;;;;;;;;;21.10;67.10;;;;;;5054548;28;1180;-66
2021/08/11 11:32:22;;;;;;;;;;;21.20;67.20;;;;;;5036381;28;1233;-67
2021/08/11 11:34:48;;;;;;;;;;;21.20;67.10;;;;;;5023338;28;1233;-66
2021/08/11 11:37:13;;;;;;;;;;;21.20;67.00;;;;;;5036520;28;1150;-67
2021/08/11 11:39:43;;;;;;;;;;;21.20;67.40;;;;;;5054364;28;1184;-66
2021/08/11 11:42:11;;;;;;;;;;;21.20;67.20;;;;;;5053948;28;1971;-66
2021/08/11 11:44:46;;;;;;;;;;;21.20;67.00;;;;;;5053850;28;1091;-67
2021/08/11 11:47:12;;;;;;;;;;;21.20;67.20;;;;;;5036541;28;1127;-66
2021/08/11 11:49:38;;;;;;;;;;;21.10;68.20;;;;;;5054364;28;1262;-67
2021/08/11 11:52:04;;;;;;;;;;;21.20;68.00;;;;;;5012246;28;1189;-66
2021/08/11 11:54:30;;;;;;;;;;;21.20;67.70;;;;;;5050858;28;1120;-66
2021/08/11 11:56:55;;;;;;;;;;;21.10;68.20;;;;;;5036086;28;1194;-66
2021/08/11 11:59:21;;;;;;;;;;;21.10;68.40;;;;;;5053816;28;1385;-66
2021/08/11 12:01:46;;;;;;;;;;;21.10;68.70;;;;;;5036181;28;1898;-66
2021/08/11 12:04:12;;;;;;;;;;;21.10;68.70;;;;;;5053519;28;1099;-66
2021/08/11 12:06:39;;;;;;;;;;;21.20;68.80;;;;;;5036189;28;1135;-66
2021/08/11 12:09:04;;;;;;;;;;;21.10;68.50;;;;;;5035986;28;1284;-66
2021/08/11 12:11:30;;;;;;;;;;;21.10;68.70;;;;;;5053845;28;1075;-66
2021/08/11 12:13:56;;;;;;;;;;;21.10;68.50;;;;;;5053397;28;1169;-66
2021/08/11 12:16:21;;;;;;;;;;;21.20;68.20;;;;;;5035838;28;1115;-66
2021/08/11 12:18:47;;;;;;;;;;;21.10;67.20;;;;;;5053179;28;1418;-66
2021/08/11 12:21:13;;;;;;;;;;;21.20;67.00;;;;;;5053797;28;1004;-66
2021/08/11 12:23:39;;;;;;;;;;;21.20;66.70;;;;;;5052935;28;1914;-66
2021/08/11 12:26:05;;;;;;;;;;;21.20;67.00;;;;;;5028760;28;1163;-66
2021/08/11 12:28:36;;;;;;;;;;;21.20;66.90;;;;;;5044643;28;1284;-66
2021/08/11 12:31:08;;;;;;;;;;;21.20;66.20;;;;;;5053652;28;1079;-66
2021/08/11 12:33:37;;;;;;;;;;;21.20;66.40;;;;;;5030438;28;1063;-67
2021/08/11 12:36:17;;;;;;;;;;;21.20;66.50;;;;;;5028179;28;1128;-67
2021/08/11 12:38:42;;;;;;;;;;;21.20;66.60;;;;;;5036225;28;1253;-65
2021/08/11 12:41:15;;;;;;;;;;;21.20;66.50;;;;;;5051922;28;1425;-67
2021/08/11 12:43:40;;;;;;;;;;;21.20;66.20;;;;;;5053148;28;1906;-66
2021/08/11 12:46:07;;;;;;;;;;;21.20;66.20;;;;;;5052922;28;985;-67
2021/08/11 12:48:33;;;;;;;;;;;21.20;66.10;;;;;;5035456;28;1314;-65
2021/08/11 12:50:59;;;;;;;;;;;21.20;65.90;;;;;;5053122;28;1139;-66
2021/08/11 12:53:25;;;;;;;;;;;21.20;65.70;;;;;;5042269;28;1146;-66
2021/08/11 12:56:23;;;;;;;;;;;21.20;65.40;;;;;;5052833;28;1118;-66
2021/08/11 12:59:04;;;;;;;;;;;21.20;65.50;;;;;;5019149;28;1440;-66
2021/08/11 13:01:37;;;;;;;;;;;21.20;65.60;;;;;;5035225;28;1198;-67
2021/08/11 13:04:04;;;;;;;;;;;21.20;65.70;;;;;;5034800;28;1075;-67
2021/08/11 13:06:33;;;;;;;;;;;21.20;66.50;;;;;;5052997;28;1064;-66
2021/08/11 13:08:58;;;;;;;;;;;21.20;65.80;;;;;;5034975;28;1268;-67
2021/08/11 13:11:24;;;;;;;;;;;21.20;65.70;;;;;;5053326;28;1087;-66
2021/08/11 13:13:50;;;;;;;;;;;21.20;65.60;;;;;;5052665;28;1063;-67
2021/08/11 13:16:15;;;;;;;;;;;21.30;64.50;;;;;;5052223;28;1099;-67
2021/08/11 13:18:43;;;;;;;;;;;21.30;64.60;;;;;;5076588;22;3557;-70
2021/08/11 13:21:08;;;;;;;;;;;21.30;64.70;;;;;;5051399;28;917;-69
2021/08/11 13:23:37;;;;;;;;;;;21.30;64.70;;;;;;5051558;28;1972;-69
2021/08/11 13:26:03;;;;;;;;;;;21.30;65.00;;;;;;5025038;28;1297;-69
2021/08/11 13:28:28;;;;;;;;;;;21.30;65.50;;;;;;5046169;28;1211;-69
2021/08/11 13:30:54;;;;;;;;;;;21.30;65.50;;;;;;5031465;28;1094;-69
2021/08/11 13:33:19;;;;;;;;;;;21.30;65.90;;;;;;5034346;28;1185;-69
2021/08/11 13:35:45;;;;;;;;;;;21.30;65.80;;;;;;5053003;28;1020;-68
2021/08/11 13:38:11;;;;;;;;;;;21.30;65.60;;;;;;5056744;28;1256;-69
2021/08/11 13:40:36;;;;;;;;;;;21.30;65.10;;;;;;5056888;28;1130;-70
2021/08/11 13:43:02;;;;;;;;;;;21.30;65.20;;;;;;5051944;28;1953;-68
2021/08/11 13:45:27;;;;;;;;;;;21.30;65.80;;;;;;5056348;28;616;-68
2021/08/11 13:47:53;;;;;;;;;;;21.30;65.80;;;;;;5053763;28;1170;-69
2021/08/11 13:50:18;;;;;;;;;;;21.30;65.60;;;;;;5035455;28;1225;-69
2021/08/11 13:52:44;;;;;;;;;;;21.30;65.50;;;;;;5039237;28;1099;-67
2021/08/11 13:55:10;;;;;;;;;;;21.30;66.10;;;;;;5036373;28;1070;-69
2021/08/11 13:57:35;;;;;;;;;;;21.20;66.10;;;;;;5035286;28;1091;-68
2021/08/11 14:00:01;;;;;;;;;;;21.20;66.00;;;;;;5035208;28;1239;-68
2021/08/11 14:02:26;;;;;;;;;;;21.30;65.50;;;;;;5036417;28;1906;-67
2021/08/11 14:04:52;;;;;;;;;;;21.30;65.70;;;;;;5036233;28;1103;-67
2021/08/11 14:07:18;;;;;;;;;;;21.30;65.80;;;;;;5036354;28;1211;-68
2021/08/11 14:09:43;;;;;;;;;;;21.30;66.30;;;;;;5036220;28;1181;-69
2021/08/11 14:12:09;;;;;;;;;;;21.20;66.10;;;;;;5043465;28;1714;-69
2021/08/11 14:14:36;;;;;;;;;;;21.30;66.00;;;;;;5055647;28;1117;-68
2021/08/11 14:17:04;;;;;;;;;;;21.30;65.70;;;;;;5055898;28;1106;-68
2021/08/11 14:19:30;;;;;;;;;;;21.30;65.60;;;;;;5054596;28;1305;-69
2021/08/11 14:21:55;;;;;;;;;;;21.30;65.50;;;;;;5056007;28;1960;-68
2021/08/11 14:24:21;;;;;;;;;;;21.30;65.50;;;;;;5053679;28;1142;-68
2021/08/11 14:26:46;;;;;;;;;;;21.30;65.60;;;;;;5034744;28;1104;-68
2021/08/11 14:29:13;;;;;;;;;;;21.30;65.70;;;;;;5035861;28;1221;-70